createdAt,value
2023-04-02T00:01:37.800Z,96492.31
2023-04-02T00:04:26.454Z,96504.63
2023-04-02T00:06:55.965Z,96496.25
2023-04-02T00:09:37.810Z,96509.13
2023-04-02T00:12:20.011Z,96498.84
2023-04-02T00:14:51.431Z,96501.31
2023-04-02T00:17:19.879Z,96504.94
2023-04-02T00:19:51.133Z,96512.34
2023-04-02T00:22:22.444Z,96514.00
2023-04-02T00:24:54.140Z,96524.03
2023-04-02T00:27:21.853Z,96527.72
2023-04-02T00:29:50.618Z,96525.25
2023-04-02T00:32:22.423Z,96526.06
2023-04-02T00:34:50.456Z,96528.75
2023-04-02T00:37:23.873Z,96531.00
2023-04-02T00:39:57.895Z,96536.16
2023-04-02T00:42:29.126Z,96535.72
2023-04-02T00:44:58.669Z,96538.22
2023-04-02T00:47:28.209Z,96543.94
2023-04-02T00:49:58.565Z,96545.97
2023-04-02T00:52:28.104Z,96542.28
2023-04-02T00:55:02.584Z,96550.91
2023-04-02T00:57:31.030Z,96549.47
2023-04-02T01:00:03.007Z,96559.91
2023-04-02T01:02:33.617Z,96551.75
2023-04-02T01:05:03.477Z,96554.41
2023-04-02T01:07:47.391Z,96561.16
2023-04-02T01:10:37.169Z,96562.78
2023-04-02T01:13:14.758Z,96576.53
2023-04-02T01:15:43.991Z,96574.88
2023-04-02T01:18:31.178Z,96582.44
2023-04-02T01:21:23.615Z,96583.63
2023-04-02T01:23:58.267Z,96591.00
2023-04-02T01:26:37.809Z,96587.13
2023-04-02T01:29:10.328Z,96599.19
2023-04-02T01:31:39.199Z,96597.94
2023-04-02T01:34:10.042Z,96605.91
2023-04-02T01:36:41.819Z,96610.00
2023-04-02T01:39:16.529Z,96612.84
2023-04-02T01:41:48.585Z,96621.41
2023-04-02T01:44:21.852Z,96630.53
2023-04-02T01:46:50.675Z,96637.28
2023-04-02T01:49:21.212Z,96640.16
2023-04-02T01:51:54.002Z,96648.88
2023-04-02T01:54:22.695Z,96645.81
2023-04-02T01:56:51.326Z,96653.78
2023-04-02T01:59:22.301Z,96659.38
2023-04-02T02:01:59.815Z,96666.94
2023-04-02T02:04:27.865Z,96670.00
2023-04-02T02:06:58.626Z,96667.88
2023-04-02T02:09:28.753Z,96678.09
2023-04-02T02:11:57.896Z,96685.34
2023-04-02T02:14:28.908Z,96678.38
2023-04-02T02:16:57.751Z,96684.75
2023-04-02T02:19:27.620Z,96688.47
2023-04-02T02:21:56.304Z,96697.41
2023-04-02T02:24:26.244Z,96696.94
2023-04-02T02:27:03.609Z,96695.91
2023-04-02T02:29:36.682Z,96708.19
2023-04-02T02:32:05.524Z,96721.66
2023-04-02T02:34:37.813Z,96721.88
2023-04-02T02:37:07.676Z,96723.19
2023-04-02T02:39:38.553Z,96726.41
2023-04-02T02:42:10.487Z,96732.72
2023-04-02T02:44:43.177Z,96742.66
2023-04-02T02:47:14.848Z,96746.97
2023-04-02T02:49:44.603Z,96752.41
2023-04-02T02:52:17.550Z,96750.88
2023-04-02T02:54:55.249Z,96758.13
2023-04-02T02:57:28.771Z,96765.91
2023-04-02T02:59:59.783Z,96767.97
2023-04-02T03:02:29.062Z,96774.53
2023-04-02T03:04:59.329Z,96770.22
2023-04-02T03:07:30.297Z,96782.19
2023-04-02T03:10:05.496Z,96781.56
2023-04-02T03:12:43.562Z,96789.13
2023-04-02T03:15:19.644Z,96788.22
2023-04-02T03:17:52.777Z,96787.31
2023-04-02T03:20:23.294Z,96801.28
2023-04-02T03:22:54.954Z,96800.22
2023-04-02T03:25:27.861Z,96808.72
2023-04-02T03:28:00.662Z,96818.13
2023-04-02T03:30:33.029Z,96818.19
2023-04-02T03:33:03.830Z,96825.44
2023-04-02T03:35:35.666Z,96830.03
2023-04-02T03:38:07.379Z,96832.63
2023-04-02T03:40:39.062Z,96842.09
2023-04-02T03:43:14.979Z,96847.41
2023-04-02T03:45:47.064Z,96847.22
2023-04-02T03:48:19.067Z,96857.09
2023-04-02T03:50:52.045Z,96860.91
2023-04-02T03:53:24.142Z,96859.44
2023-04-02T03:55:52.666Z,96865.38
2023-04-02T03:58:22.950Z,96875.84
2023-04-02T04:00:55.275Z,96876.22
2023-04-02T04:03:26.011Z,96884.53
2023-04-02T04:05:57.291Z,96894.09
2023-04-02T04:08:28.374Z,96888.59
2023-04-02T04:10:58.945Z,96894.28
2023-04-02T04:13:30.283Z,96905.81
2023-04-02T04:16:03.185Z,96909.84
2023-04-02T04:18:37.844Z,96908.53
2023-04-02T04:21:13.245Z,96921.69
2023-04-02T04:23:49.816Z,96927.09
2023-04-02T04:26:21.204Z,96926.97
2023-04-02T04:28:59.817Z,96939.50
2023-04-02T04:31:38.925Z,96935.78
2023-04-02T04:34:09.708Z,96949.53
2023-04-02T04:36:53.812Z,96953.47
2023-04-02T04:39:30.448Z,96957.25
2023-04-02T04:42:00.368Z,96966.59
2023-04-02T04:44:36.968Z,96973.81
2023-04-02T04:47:09.392Z,96977.63
2023-04-02T04:49:40.547Z,96992.06
2023-04-02T04:52:10.208Z,96984.88
2023-04-02T04:54:39.339Z,96992.22
2023-04-02T04:57:22.851Z,97009.19
2023-04-02T04:59:54.387Z,97010.03
2023-04-02T05:02:25.201Z,97013.63
2023-04-02T05:04:54.701Z,97020.25
2023-04-02T05:07:27.348Z,97024.41
2023-04-02T05:09:58.542Z,97024.78
2023-04-02T05:12:32.673Z,97031.56
2023-04-02T05:15:03.552Z,97031.41
2023-04-02T05:17:36.581Z,97046.50
2023-04-02T05:20:09.734Z,97053.31
2023-04-02T05:22:43.687Z,97056.28
2023-04-02T05:25:18.054Z,97062.78
2023-04-02T05:27:49.472Z,97080.50
2023-04-02T05:30:34.083Z,97079.66
2023-04-02T05:33:07.864Z,97083.63
2023-04-02T05:35:37.939Z,97084.47
2023-04-02T05:38:06.567Z,97095.16
2023-04-02T05:40:37.499Z,97094.81
2023-04-02T05:43:09.927Z,97095.72
2023-04-02T05:45:42.821Z,97101.13
2023-04-02T05:48:17.597Z,97101.13
2023-04-02T05:50:46.853Z,97103.91
2023-04-02T05:53:22.570Z,97111.38
2023-04-02T05:55:54.678Z,97108.72
2023-04-02T06:01:08.817Z,97107.41
2023-04-02T06:03:46.025Z,97120.31
2023-04-02T06:06:20.473Z,97130.22
2023-04-02T06:08:53.438Z,97133.69
2023-04-02T06:11:23.943Z,97142.81
2023-04-02T06:13:52.682Z,97140.00
2023-04-02T06:16:27.530Z,97151.06
2023-04-02T06:18:57.479Z,97163.59
2023-04-02T06:21:26.906Z,97161.44
2023-04-02T06:23:57.349Z,97161.97
2023-04-02T06:26:29.872Z,97167.41
2023-04-02T06:29:02.282Z,97171.22
2023-04-02T06:31:36.933Z,97180.78
2023-04-02T06:34:16.246Z,97189.38
2023-04-02T06:36:52.346Z,97185.53
2023-04-02T06:39:22.813Z,97187.03
2023-04-02T06:41:56.972Z,97207.84
2023-04-02T06:44:33.972Z,97207.19
2023-04-02T06:47:28.271Z,97218.25
2023-04-02T06:50:02.386Z,97228.63
2023-04-02T06:52:34.064Z,97226.28
2023-04-02T06:55:08.336Z,97231.94
2023-04-02T06:57:36.178Z,97238.19
2023-04-02T07:00:05.075Z,97232.44
2023-04-02T07:02:36.803Z,97248.97
2023-04-02T07:05:09.868Z,97258.50
2023-04-02T07:07:41.731Z,97258.34
2023-04-02T07:10:12.707Z,97263.31
2023-04-02T07:12:41.514Z,97270.09
2023-04-02T07:15:12.193Z,97271.09
2023-04-02T07:17:39.873Z,97280.66
2023-04-02T07:20:21.650Z,97285.72
2023-04-02T07:22:49.186Z,97292.88
2023-04-02T07:25:16.851Z,97296.88
2023-04-02T07:27:44.402Z,97299.22
2023-04-02T07:30:14.803Z,97309.47
2023-04-02T07:32:42.645Z,97306.47
2023-04-02T07:35:12.678Z,97310.94
2023-04-02T07:37:40.748Z,97325.31
2023-04-02T07:40:16.743Z,97327.13
2023-04-02T07:42:44.273Z,97334.19
2023-04-02T07:45:12.413Z,97332.69
2023-04-02T07:47:40.152Z,97335.75
2023-04-02T07:50:09.441Z,97336.66
2023-04-02T07:52:42.077Z,97350.03
2023-04-02T07:55:10.756Z,97346.00
2023-04-02T07:57:42.625Z,97350.31
2023-04-02T08:00:13.516Z,97354.78
2023-04-02T08:02:41.250Z,97354.66
2023-04-02T08:05:10.480Z,97372.41
2023-04-02T08:07:38.988Z,97378.88
2023-04-02T08:10:10.504Z,97383.44
2023-04-02T08:12:38.091Z,97380.69
2023-04-02T08:15:06.921Z,97390.03
2023-04-02T08:17:34.479Z,97400.66
2023-04-02T08:20:02.022Z,97392.81
2023-04-02T08:22:29.883Z,97409.28
2023-04-02T08:24:57.555Z,97408.13
2023-04-02T08:27:26.718Z,97409.44
2023-04-02T08:29:55.318Z,97420.59
2023-04-02T08:32:24.144Z,97422.94
2023-04-02T08:34:51.841Z,97425.81
2023-04-02T08:37:19.321Z,97430.47
2023-04-02T08:39:46.825Z,97440.13
2023-04-02T08:42:21.277Z,97439.34
2023-04-02T08:45:08.024Z,97444.78
2023-04-02T08:47:42.062Z,97448.44
2023-04-02T08:50:16.627Z,97460.50
2023-04-02T08:52:44.315Z,97455.22
2023-04-02T08:55:20.145Z,97465.19
2023-04-02T08:57:53.741Z,97472.66
2023-04-02T09:00:28.797Z,97476.03
2023-04-02T09:02:58.340Z,97476.69
2023-04-02T09:05:29.583Z,97488.91
2023-04-02T09:08:00.372Z,97489.34
2023-04-02T09:10:35.346Z,97481.63
2023-04-02T09:13:04.124Z,97487.28
2023-04-02T09:15:35.418Z,97491.50
2023-04-02T09:18:14.109Z,97494.47
2023-04-02T09:20:41.906Z,97501.13
2023-04-02T09:23:16.145Z,97509.22
2023-04-02T09:25:54.093Z,97515.13
2023-04-02T09:28:28.928Z,97522.75
2023-04-02T09:31:03.091Z,97532.94
2023-04-02T09:33:45.167Z,97537.47
2023-04-02T09:36:20.738Z,97544.63
2023-04-02T09:38:59.034Z,97553.16
2023-04-02T09:41:28.632Z,97550.03
2023-04-02T09:44:15.072Z,97553.19
2023-04-02T09:46:52.869Z,97559.75
2023-04-02T09:49:23.919Z,97562.94
2023-04-02T09:52:09.757Z,97575.59
2023-04-02T09:54:41.758Z,97576.06
2023-04-02T09:57:21.273Z,97581.47
2023-04-02T09:59:48.853Z,97592.16
2023-04-02T10:02:29.920Z,97589.88
2023-04-02T10:04:57.580Z,97587.47
2023-04-02T10:07:34.660Z,97598.41
2023-04-02T10:10:03.668Z,97605.81
2023-04-02T10:12:36.518Z,97615.88
2023-04-02T10:15:05.289Z,97616.38
2023-04-02T10:17:37.277Z,97617.75
2023-04-02T10:20:11.429Z,97630.50
2023-04-02T10:22:38.904Z,97627.03
2023-04-02T10:25:14.760Z,97632.88
2023-04-02T10:27:48.266Z,97634.81
2023-04-02T10:30:20.400Z,97641.56
2023-04-02T10:32:51.357Z,97640.78
2023-04-02T10:35:26.100Z,97648.28
2023-04-02T10:38:15.790Z,97643.19
2023-04-02T10:40:47.594Z,97658.09
2023-04-02T10:43:40.593Z,97661.75
2023-04-02T10:46:13.725Z,97661.72
2023-04-02T10:48:48.596Z,97662.09
2023-04-02T10:51:29.691Z,97673.44
2023-04-02T10:54:00.216Z,97680.69
2023-04-02T10:56:29.833Z,97689.66
2023-04-02T10:59:02.488Z,97682.06
2023-04-02T11:01:31.460Z,97695.06
2023-04-02T11:04:02.851Z,97698.91
2023-04-02T11:06:33.314Z,97709.50
2023-04-02T11:09:04.890Z,97703.94
2023-04-02T11:11:36.607Z,97709.09
2023-04-02T11:14:06.433Z,97712.84
2023-04-02T11:16:36.084Z,97715.88
2023-04-02T11:19:22.612Z,97721.78
2023-04-02T11:21:58.605Z,97721.19
2023-04-02T11:24:37.894Z,97726.06
2023-04-02T11:27:08.163Z,97733.50
2023-04-02T11:29:37.581Z,97725.47
2023-04-02T11:32:31.156Z,97728.28
2023-04-02T11:35:06.681Z,97729.66
2023-04-02T11:37:38.307Z,97726.06
2023-04-02T11:40:46.743Z,97742.56
2023-04-02T11:43:49.277Z,97745.88
2023-04-02T11:46:46.432Z,97753.03
2023-04-02T11:49:41.460Z,97754.94
2023-04-02T11:52:27.420Z,97756.00
2023-04-02T11:55:01.562Z,97762.28
2023-04-02T11:57:51.084Z,97763.00
2023-04-02T12:00:27.302Z,97771.03
2023-04-02T12:03:06.786Z,97773.13
2023-04-02T12:05:37.755Z,97777.56
2023-04-02T12:08:16.619Z,97776.03
2023-04-02T12:10:57.988Z,97776.03
2023-04-02T12:13:54.188Z,97792.69
2023-04-02T12:16:22.887Z,97799.38
2023-04-02T12:18:54.038Z,97792.84
2023-04-02T12:21:23.606Z,97790.63
2023-04-02T12:23:53.867Z,97804.84
2023-04-02T12:26:32.004Z,97799.81
2023-04-02T12:29:24.742Z,97807.34
2023-04-02T12:31:52.410Z,97807.94
2023-04-02T12:34:21.361Z,97805.13
2023-04-02T12:36:53.962Z,97808.91
2023-04-02T12:39:21.900Z,97806.91
2023-04-02T12:41:49.583Z,97814.22
2023-04-02T12:44:18.852Z,97818.53
2023-04-02T12:46:48.491Z,97816.00
2023-04-02T12:49:33.215Z,97818.63
2023-04-02T12:52:03.343Z,97823.63
2023-04-02T12:54:34.352Z,97831.69
2023-04-02T12:57:23.765Z,97832.84
2023-04-02T12:59:51.348Z,97845.25
2023-04-02T13:02:21.793Z,97844.31
2023-04-02T13:04:50.229Z,97843.34
2023-04-02T13:07:18.505Z,97843.41
2023-04-02T13:09:48.401Z,97845.66
2023-04-02T13:12:26.734Z,97853.69
2023-04-02T13:14:55.847Z,97854.75
2023-04-02T13:17:45.629Z,97852.66
2023-04-02T13:20:38.522Z,97856.69
2023-04-02T13:23:24.828Z,97857.69
2023-04-02T13:25:52.810Z,97868.50
2023-04-02T13:28:20.574Z,97872.22
2023-04-02T13:30:48.225Z,97880.16
2023-04-02T13:33:17.442Z,97876.00
2023-04-02T13:35:45.415Z,97879.72
2023-04-02T13:38:13.017Z,97878.78
2023-04-02T13:40:41.243Z,97886.81
2023-04-02T13:43:09.141Z,97887.91
2023-04-02T13:45:38.562Z,97891.25
2023-04-02T13:48:07.244Z,97893.75
2023-04-02T13:50:37.181Z,97896.81
2023-04-02T13:53:07.817Z,97904.59
2023-04-02T13:55:39.637Z,97907.06
2023-04-02T13:58:07.123Z,97899.69
2023-04-02T14:00:36.764Z,97906.53
2023-04-02T14:03:07.287Z,97902.09
2023-04-02T14:05:41.713Z,97913.88
2023-04-02T14:08:11.755Z,97912.31
2023-04-02T14:10:50.553Z,97915.81
2023-04-02T14:13:21.191Z,97921.63
2023-04-02T14:15:56.307Z,97927.28
2023-04-02T14:18:32.847Z,97929.25
2023-04-02T14:21:08.866Z,97932.03
2023-04-02T14:23:47.984Z,97932.31
2023-04-02T14:26:22.243Z,97936.22
2023-04-02T14:28:57.389Z,97944.56
2023-04-02T14:31:28.981Z,97939.53
2023-04-02T14:34:03.693Z,97948.44
2023-04-02T14:36:40.080Z,97952.88
2023-04-02T14:39:13.326Z,97953.72
2023-04-02T14:41:44.074Z,97950.84
2023-04-02T14:44:12.460Z,97955.97
2023-04-02T14:46:41.979Z,97955.53
2023-04-02T14:49:20.857Z,97967.34
2023-04-02T14:51:50.737Z,97958.47
2023-04-02T14:54:23.583Z,97960.53
2023-04-02T14:56:54.054Z,97957.91
2023-04-02T14:59:26.741Z,97962.34
2023-04-02T15:01:57.568Z,97966.94
2023-04-02T15:04:28.612Z,97968.19
2023-04-02T15:07:04.273Z,97966.38
2023-04-02T15:09:36.659Z,97971.38
2023-04-02T15:12:08.644Z,97968.44
2023-04-02T15:14:40.215Z,97968.03
2023-04-02T15:17:11.382Z,97964.00
2023-04-02T15:19:39.052Z,97978.84
2023-04-02T15:22:18.601Z,97975.22
2023-04-02T15:24:52.379Z,97975.94
2023-04-02T15:27:29.139Z,97978.41
2023-04-02T15:30:01.295Z,97985.91
2023-04-02T15:32:31.811Z,97990.06
2023-04-02T15:35:02.588Z,97985.88
2023-04-02T15:37:36.375Z,97988.66
2023-04-02T15:40:24.781Z,97994.06
2023-04-02T15:42:56.089Z,97998.13
2023-04-02T15:45:28.131Z,97996.34
2023-04-02T15:48:20.380Z,98003.03
2023-04-02T15:50:57.708Z,98004.53
2023-04-02T15:53:34.752Z,98014.81
2023-04-02T15:56:09.679Z,98009.56
2023-04-02T15:58:48.405Z,98013.97
2023-04-02T16:01:18.486Z,98012.75
2023-04-02T16:04:04.506Z,98016.22
2023-04-02T16:06:38.888Z,98015.41
2023-04-02T16:09:19.441Z,98032.34
2023-04-02T16:11:46.954Z,98039.28
2023-04-02T16:14:22.315Z,98043.03
2023-04-02T16:16:51.745Z,98034.00
2023-04-02T16:19:25.589Z,98044.69
2023-04-02T16:21:59.706Z,98034.53
2023-04-02T16:24:28.494Z,98040.25
2023-04-02T16:27:00.048Z,98044.00
2023-04-02T16:29:47.531Z,98042.44
2023-04-02T16:32:26.422Z,98056.63
2023-04-02T16:35:12.947Z,98059.41
2023-04-02T16:37:49.701Z,98057.88
2023-04-02T16:40:29.774Z,98067.16
2023-04-02T16:43:04.741Z,98069.28
2023-04-02T16:45:36.728Z,98074.69
2023-04-02T16:48:10.799Z,98076.34
2023-04-02T16:50:45.223Z,98075.53
2023-04-02T16:53:22.173Z,98087.47
2023-04-02T16:56:03.311Z,98081.91
2023-04-02T16:58:43.500Z,98080.09
2023-04-02T17:01:17.947Z,98086.78
2023-04-02T17:04:02.559Z,98085.09
2023-04-02T17:06:39.485Z,98098.16
2023-04-02T17:09:12.705Z,98093.28
2023-04-02T17:11:43.102Z,98101.91
2023-04-02T17:14:21.071Z,98101.34
2023-04-02T17:16:51.795Z,98107.59
2023-04-02T17:19:20.781Z,98116.63
2023-04-02T17:21:51.982Z,98111.38
2023-04-02T17:24:24.505Z,98122.19
2023-04-02T17:26:55.612Z,98120.66
2023-04-02T17:29:28.535Z,98126.38
2023-04-02T17:32:00.836Z,98128.88
2023-04-02T17:34:28.972Z,98127.91
2023-04-02T17:37:03.894Z,98143.44
2023-04-02T17:39:36.196Z,98136.78
2023-04-02T17:42:15.571Z,98137.88
2023-04-02T17:44:49.442Z,98144.28
2023-04-02T17:47:21.056Z,98147.34
2023-04-02T17:49:59.572Z,98151.50
2023-04-02T17:52:31.303Z,98157.59
2023-04-02T17:55:05.785Z,98160.41
2023-04-02T17:57:44.263Z,98161.78
2023-04-02T18:00:20.377Z,98166.09
2023-04-02T18:02:59.760Z,98166.66
2023-04-02T18:05:31.443Z,98169.81
2023-04-02T18:08:07.971Z,98175.94
2023-04-02T18:10:39.749Z,98178.59
2023-04-02T18:13:16.492Z,98182.63
2023-04-02T18:15:57.668Z,98184.97
2023-04-02T18:18:34.867Z,98190.66
2023-04-02T18:21:09.379Z,98181.78
2023-04-02T18:23:45.603Z,98192.88
2023-04-02T18:26:17.749Z,98196.78
2023-04-02T18:28:53.101Z,98193.16
2023-04-02T18:31:28.338Z,98198.59
2023-04-02T18:34:10.997Z,98198.44
2023-04-02T18:36:43.547Z,98199.00
2023-04-02T18:39:15.505Z,98200.41
2023-04-02T18:41:47.192Z,98203.44
2023-04-02T18:44:23.737Z,98203.16
2023-04-02T18:46:53.382Z,98209.00
2023-04-02T18:49:27.214Z,98215.78
2023-04-02T18:51:58.561Z,98220.69
2023-04-02T18:54:30.014Z,98230.97
2023-04-02T18:56:57.597Z,98232.91
2023-04-02T18:59:40.065Z,98238.31
2023-04-02T19:02:25.383Z,98234.44
2023-04-02T19:04:59.151Z,98245.41
2023-04-02T19:07:29.093Z,98245.69
2023-04-02T19:09:57.808Z,98243.09
2023-04-02T19:12:25.492Z,98242.03
2023-04-02T19:14:56.083Z,98255.53
2023-04-02T19:17:29.192Z,98263.16
2023-04-02T19:20:05.344Z,98260.94
2023-04-02T19:22:40.458Z,98259.53
2023-04-02T19:25:28.675Z,98260.94
2023-04-02T19:28:08.932Z,98265.94
2023-04-02T19:31:00.250Z,98267.31
2023-04-02T19:33:36.114Z,98263.84
2023-04-02T19:36:09.969Z,98258.16
2023-04-02T19:38:52.772Z,98259.66
2023-04-02T19:41:26.437Z,98266.72
2023-04-02T19:43:54.255Z,98274.50
2023-04-02T19:46:23.191Z,98270.91
2023-04-02T19:48:57.454Z,98274.25
2023-04-02T19:51:25.056Z,98271.84
2023-04-02T19:53:52.701Z,98271.50
2023-04-02T19:56:21.843Z,98270.25
2023-04-02T19:58:49.376Z,98279.84
2023-04-02T20:01:17.142Z,98281.53
2023-04-02T20:03:46.112Z,98283.63
2023-04-02T20:06:13.604Z,98289.22
2023-04-02T20:08:41.081Z,98285.06
2023-04-02T20:11:08.772Z,98297.03
2023-04-02T20:13:36.508Z,98290.38
2023-04-02T20:16:05.690Z,98292.63
2023-04-02T20:18:33.282Z,98295.97
2023-04-02T20:21:06.456Z,98300.25
2023-04-02T20:23:34.273Z,98301.75
2023-04-02T20:26:02.606Z,98292.63
2023-04-02T20:28:30.944Z,98302.03
2023-04-02T20:31:07.971Z,98308.41
2023-04-02T20:33:36.631Z,98305.69
2023-04-02T20:36:07.378Z,98303.88
2023-04-02T20:38:35.832Z,98312.78
2023-04-02T20:41:04.925Z,98317.75
2023-04-02T20:43:32.700Z,98329.25
2023-04-02T20:46:03.767Z,98324.38
2023-04-02T20:48:32.307Z,98329.81
2023-04-02T20:51:00.562Z,98327.34
2023-04-02T20:53:31.762Z,98334.19
2023-04-02T20:56:03.743Z,98326.50
2023-04-02T20:58:31.287Z,98335.81
2023-04-02T21:01:07.526Z,98333.56
2023-04-02T21:03:35.036Z,98339.84
2023-04-02T21:06:02.722Z,98338.34
2023-04-02T21:08:31.539Z,98328.63
2023-04-02T21:11:03.520Z,98337.69
2023-04-02T21:13:31.610Z,98330.84
2023-04-02T21:15:59.517Z,98328.22
2023-04-02T21:18:27.256Z,98333.50
2023-04-02T21:20:59.544Z,98337.69
2023-04-02T21:23:27.346Z,98351.56
2023-04-02T21:26:00.829Z,98346.41
2023-04-02T21:28:29.135Z,98345.03
2023-04-02T21:31:03.359Z,98348.50
2023-04-02T21:33:31.629Z,98336.13
2023-04-02T21:36:06.478Z,98335.88
2023-04-02T21:38:34.289Z,98341.25
2023-04-02T21:41:12.638Z,98345.81
2023-04-02T21:43:40.312Z,98345.31
2023-04-02T21:46:07.884Z,98345.56
2023-04-02T21:48:35.493Z,98348.47
2023-04-02T21:51:11.261Z,98346.78
2023-04-02T21:53:39.099Z,98354.19
2023-04-02T21:56:07.845Z,98359.44
2023-04-02T21:58:36.676Z,98347.75
2023-04-02T22:01:07.120Z,98358.84
2023-04-02T22:03:36.670Z,98356.38
2023-04-02T22:06:05.996Z,98357.47
2023-04-02T22:08:33.737Z,98363.06
2023-04-02T22:11:06.634Z,98361.56
2023-04-02T22:13:34.888Z,98366.06
2023-04-02T22:16:06.870Z,98370.66
2023-04-02T22:18:35.588Z,98367.66
2023-04-02T22:21:03.113Z,98374.59
2023-04-02T22:23:30.939Z,98370.88
2023-04-02T22:25:59.748Z,98373.22
2023-04-02T22:28:27.598Z,98375.31
2023-04-02T22:30:56.292Z,98365.59
2023-04-02T22:33:27.240Z,98365.97
2023-04-02T22:35:54.914Z,98368.53
2023-04-02T22:38:22.445Z,98369.78
2023-04-02T22:40:49.907Z,98366.06
2023-04-02T22:43:17.454Z,98370.13
2023-04-02T22:45:45.372Z,98373.47
2023-04-02T22:48:12.857Z,98371.66
2023-04-02T22:50:41.915Z,98379.25
2023-04-02T22:53:11.839Z,98378.78
2023-04-02T22:55:39.402Z,98385.31
2023-04-02T22:58:06.875Z,98379.63
2023-04-02T23:00:34.858Z,98382.50
2023-04-02T23:03:02.812Z,98383.09
2023-04-02T23:05:30.650Z,98388.38
2023-04-02T23:07:59.677Z,98386.09
2023-04-02T23:10:30.553Z,98388.75
2023-04-02T23:12:58.373Z,98390.53
2023-04-02T23:15:26.004Z,98388.38
2023-04-02T23:17:53.552Z,98384.72
2023-04-02T23:20:21.133Z,98393.50
2023-04-02T23:22:48.625Z,98389.19
2023-04-02T23:25:17.584Z,98388.38
2023-04-02T23:27:45.042Z,98391.91
2023-04-02T23:30:12.982Z,98392.41
2023-04-02T23:32:40.613Z,98385.81
2023-04-02T23:35:08.577Z,98391.81
2023-04-02T23:37:36.113Z,98386.34
2023-04-02T23:40:03.790Z,98391.91
2023-04-02T23:42:32.732Z,98389.53
2023-04-02T23:45:00.232Z,98385.28
2023-04-02T23:47:27.749Z,98385.75
2023-04-02T23:49:55.244Z,98390.19
2023-04-02T23:52:22.728Z,98391.00
2023-04-02T23:54:50.228Z,98395.88
2023-04-02T23:57:18.033Z,98394.47
2023-04-02T23:59:46.833Z,98384.25
